createdAt,value
2023-02-12T00:01:24.203Z,98750.00
2023-02-12T00:03:51.499Z,98748.00
2023-02-12T00:06:18.532Z,98753.00
2023-02-12T00:08:48.546Z,98741.00
2023-02-12T00:11:19.486Z,98746.00
2023-02-12T00:13:46.561Z,98738.00
2023-02-12T00:16:17.409Z,98755.00
2023-02-12T00:18:44.681Z,98755.00
2023-02-12T00:21:13.828Z,98753.00
2023-02-12T00:23:41.540Z,98756.00
2023-02-12T00:26:15.199Z,98753.00
2023-02-12T00:28:43.238Z,98749.00
2023-02-12T00:31:14.681Z,98751.00
2023-02-12T00:33:42.258Z,98749.00
2023-02-12T00:36:13.239Z,98752.00
2023-02-12T00:38:40.099Z,98769.00
2023-02-12T00:41:06.845Z,98771.00
2023-02-12T00:43:33.889Z,98763.00
2023-02-12T00:46:01.146Z,98763.00
2023-02-12T00:48:27.947Z,98776.00
2023-02-12T00:50:54.720Z,98771.00
2023-02-12T00:53:21.536Z,98777.00
2023-02-12T00:55:49.095Z,98786.00
2023-02-12T00:58:18.865Z,98782.00
2023-02-12T01:00:46.134Z,98788.00
2023-02-12T01:03:15.284Z,98787.00
2023-02-12T01:05:42.123Z,98779.00
2023-02-12T01:08:11.951Z,98800.00
2023-02-12T01:10:39.961Z,98788.00
2023-02-12T01:13:07.944Z,98781.00
2023-02-12T01:15:34.753Z,98787.00
2023-02-12T01:18:01.657Z,98770.00
2023-02-12T01:20:28.468Z,98793.00
2023-02-12T01:22:55.229Z,98794.00
2023-02-12T01:25:21.996Z,98795.00
2023-02-12T01:27:48.922Z,98783.00
2023-02-12T01:30:16.496Z,98777.00
2023-02-12T01:32:44.318Z,98785.00
2023-02-12T01:35:11.182Z,98783.00
2023-02-12T01:37:38.623Z,98801.00
2023-02-12T01:40:07.842Z,98784.00
2023-02-12T01:42:34.895Z,98792.00
2023-02-12T01:45:36.700Z,98787.00
2023-02-12T01:48:03.662Z,98793.00
2023-02-12T01:50:30.606Z,98794.00
2023-02-12T01:52:58.854Z,98798.00
2023-02-12T01:55:25.808Z,98802.00
2023-02-12T01:57:52.595Z,98809.00
2023-02-12T02:00:23.655Z,98807.00
2023-02-12T02:02:58.673Z,98808.00
2023-02-12T02:05:53.138Z,98801.00
2023-02-12T02:08:20.075Z,98796.00
2023-02-12T02:10:46.849Z,98801.00
2023-02-12T02:13:32.730Z,98799.00
2023-02-12T02:16:11.067Z,98803.00
2023-02-12T02:18:49.487Z,98807.00
2023-02-12T02:22:07.986Z,98802.00
2023-02-12T02:25:10.613Z,98801.00
2023-02-12T02:28:21.255Z,98792.00
2023-02-12T02:31:32.279Z,98792.00
2023-02-12T02:34:09.444Z,98794.00
2023-02-12T02:37:09.053Z,98787.00
2023-02-12T02:40:02.371Z,98785.00
2023-02-12T02:42:48.837Z,98788.00
2023-02-12T02:45:26.497Z,98797.00
2023-02-12T02:48:13.870Z,98793.00
2023-02-12T02:50:46.923Z,98801.00
2023-02-12T02:53:17.718Z,98793.00
2023-02-12T02:55:51.260Z,98800.00
2023-02-12T02:58:25.590Z,98788.00
2023-02-12T03:01:07.953Z,98788.00
2023-02-12T03:04:02.687Z,98797.00
2023-02-12T03:06:54.442Z,98801.00
2023-02-12T03:09:36.767Z,98800.00
2023-02-12T03:12:20.780Z,98803.00
2023-02-12T03:15:10.887Z,98809.00
2023-02-12T03:17:49.544Z,98814.00
2023-02-12T03:20:26.644Z,98812.00
2023-02-12T03:23:02.090Z,98807.00
2023-02-12T03:26:01.265Z,98811.00
2023-02-12T03:28:35.846Z,98816.00
2023-02-12T03:31:45.846Z,98813.00
2023-02-12T03:34:21.527Z,98816.00
2023-02-12T03:37:12.877Z,98816.00
2023-02-12T03:39:57.186Z,98826.00
2023-02-12T03:42:54.795Z,98822.00
2023-02-12T03:45:58.966Z,98836.00
2023-02-12T03:48:49.575Z,98827.00
2023-02-12T03:51:35.244Z,98824.00
2023-02-12T03:54:03.559Z,98828.00
2023-02-12T03:56:43.526Z,98818.00
2023-02-12T03:59:10.881Z,98829.00
2023-02-12T04:01:37.952Z,98824.00
2023-02-12T04:04:08.109Z,98820.00
2023-02-12T04:06:35.472Z,98815.00
2023-02-12T04:09:09.974Z,98809.00
2023-02-12T04:12:05.114Z,98818.00
2023-02-12T04:15:15.544Z,98817.00
2023-02-12T04:18:14.981Z,98819.00
2023-02-12T04:21:06.406Z,98818.00
2023-02-12T04:24:11.005Z,98821.00
2023-02-12T04:27:00.121Z,98827.00
2023-02-12T04:29:50.865Z,98825.00
2023-02-12T04:32:53.049Z,98829.00
2023-02-12T04:35:56.342Z,98824.00
2023-02-12T04:38:35.193Z,98832.00
2023-02-12T04:41:04.588Z,98837.00
2023-02-12T04:43:38.279Z,98834.00
2023-02-12T04:46:08.478Z,98837.00
2023-02-12T04:48:53.792Z,98838.00
2023-02-12T04:51:22.532Z,98835.00
2023-02-12T04:53:49.770Z,98832.00
2023-02-12T04:56:17.766Z,98833.00
2023-02-12T04:58:44.659Z,98842.00
2023-02-12T05:01:11.624Z,98843.00
2023-02-12T05:03:38.565Z,98844.00
2023-02-12T05:06:07.504Z,98849.00
2023-02-12T05:08:34.383Z,98847.00
2023-02-12T05:11:09.998Z,98865.00
2023-02-12T05:13:38.233Z,98859.00
2023-02-12T05:16:08.673Z,98862.00
2023-02-12T05:18:36.689Z,98868.00
2023-02-12T05:21:06.004Z,98870.00
2023-02-12T05:23:36.038Z,98866.00
2023-02-12T05:26:08.836Z,98873.00
2023-02-12T05:28:35.714Z,98872.00
2023-02-12T05:31:06.443Z,98869.00
2023-02-12T05:33:33.410Z,98868.00
2023-02-12T05:36:10.180Z,98866.00
2023-02-12T05:38:37.324Z,98870.00
2023-02-12T05:41:06.341Z,98871.00
2023-02-12T05:43:33.327Z,98877.00
2023-02-12T05:46:01.935Z,98883.00
2023-02-12T05:48:30.418Z,98896.00
2023-02-12T05:51:09.694Z,98889.00
2023-02-12T05:53:38.347Z,98888.00
2023-02-12T05:56:21.404Z,98899.00
2023-02-12T05:58:54.682Z,98889.00
2023-02-12T06:01:29.838Z,98896.00
2023-02-12T06:03:58.850Z,98890.00
2023-02-12T06:06:27.415Z,98896.00
2023-02-12T06:08:56.421Z,98903.00
2023-02-12T06:11:23.467Z,98902.00
2023-02-12T06:13:51.208Z,98901.00
2023-02-12T06:16:27.707Z,98902.00
2023-02-12T06:18:56.909Z,98908.00
2023-02-12T06:21:26.141Z,98919.00
2023-02-12T06:23:53.555Z,98913.00
2023-02-12T06:26:22.465Z,98919.00
2023-02-12T06:28:51.092Z,98929.00
2023-02-12T06:31:31.831Z,98922.00
2023-02-12T06:34:02.867Z,98929.00
2023-02-12T06:36:30.173Z,98928.00
2023-02-12T06:38:56.978Z,98937.00
2023-02-12T06:41:24.103Z,98932.00
2023-02-12T06:43:51.023Z,98937.00
2023-02-12T06:46:18.100Z,98953.00
2023-02-12T06:48:44.919Z,98947.00
2023-02-12T06:51:18.729Z,98954.00
2023-02-12T06:53:45.969Z,98946.00
2023-02-12T06:56:14.085Z,98951.00
2023-02-12T06:58:45.367Z,98953.00
2023-02-12T07:01:18.717Z,98962.00
2023-02-12T07:04:02.872Z,98956.00
2023-02-12T07:06:31.915Z,98951.00
2023-02-12T07:08:58.840Z,98966.00
2023-02-12T07:11:35.473Z,98955.00
2023-02-12T07:14:03.995Z,98959.00
2023-02-12T07:16:30.813Z,98958.00
2023-02-12T07:18:57.650Z,98970.00
2023-02-12T07:21:24.423Z,98963.00
2023-02-12T07:23:52.987Z,98966.00
2023-02-12T07:26:21.359Z,98962.00
2023-02-12T07:28:49.731Z,98966.00
2023-02-12T07:31:20.616Z,98965.00
2023-02-12T07:33:48.838Z,98974.00
2023-02-12T07:36:20.297Z,98964.00
2023-02-12T07:38:47.986Z,98970.00
2023-02-12T07:41:30.963Z,98978.00
2023-02-12T07:44:06.732Z,98972.00
2023-02-12T07:46:47.826Z,98970.00
2023-02-12T07:49:22.587Z,98975.00
2023-02-12T07:51:50.568Z,98977.00
2023-02-12T07:54:17.680Z,98983.00
2023-02-12T07:56:47.299Z,98973.00
2023-02-12T07:59:17.976Z,98970.00
2023-02-12T08:01:51.260Z,98972.00
2023-02-12T08:04:21.708Z,98972.00
2023-02-12T08:06:51.509Z,98973.00
2023-02-12T08:09:26.581Z,98977.00
2023-02-12T08:11:55.466Z,98985.00
2023-02-12T08:14:23.005Z,98982.00
2023-02-12T08:16:50.940Z,98979.00
2023-02-12T08:19:24.040Z,98976.00
2023-02-12T08:21:54.375Z,98975.00
2023-02-12T08:24:24.998Z,98979.00
2023-02-12T08:26:52.692Z,98988.00
2023-02-12T08:29:24.374Z,98987.00
2023-02-12T08:31:57.949Z,98992.00
2023-02-12T08:34:28.720Z,98985.00
2023-02-12T08:36:59.012Z,98991.00
2023-02-12T08:39:28.976Z,98997.00
2023-02-12T08:41:57.837Z,98998.00
2023-02-12T08:44:27.382Z,98994.00
2023-02-12T08:46:56.307Z,98991.00
2023-02-12T08:49:28.406Z,98985.00
2023-02-12T08:51:57.491Z,98997.00
2023-02-12T08:54:28.966Z,98999.00
2023-02-12T08:56:58.428Z,98994.00
2023-02-12T08:59:25.564Z,98997.00
2023-02-12T09:01:55.795Z,98997.00
2023-02-12T09:04:26.384Z,98995.00
2023-02-12T09:06:54.691Z,98997.00
2023-02-12T09:09:24.624Z,99002.00
2023-02-12T09:11:51.516Z,99000.00
2023-02-12T09:14:24.846Z,98993.00
2023-02-12T09:16:53.412Z,99002.00
2023-02-12T09:19:21.811Z,99007.00
2023-02-12T09:21:57.229Z,99009.00
2023-02-12T09:24:28.226Z,99003.00
2023-02-12T09:26:56.549Z,99003.00
2023-02-12T09:29:23.706Z,99003.00
2023-02-12T09:31:50.584Z,99018.00
2023-02-12T09:34:17.541Z,99011.00
2023-02-12T09:36:44.329Z,99012.00
2023-02-12T09:39:11.302Z,99022.00
2023-02-12T09:42:13.921Z,99017.00
2023-02-12T09:44:50.762Z,99016.00
2023-02-12T09:47:47.045Z,99013.00
2023-02-12T09:50:49.227Z,99019.00
2023-02-12T09:53:28.207Z,99026.00
2023-02-12T09:55:56.567Z,99022.00
2023-02-12T09:58:47.027Z,99020.00
2023-02-12T10:01:18.846Z,99026.00
2023-02-12T10:03:51.516Z,99028.00
2023-02-12T10:06:25.766Z,99029.00
2023-02-12T10:09:18.555Z,99032.00
2023-02-12T10:11:49.612Z,99029.00
2023-02-12T10:14:46.502Z,99023.00
2023-02-12T10:18:06.886Z,99034.00
2023-02-12T10:21:12.107Z,99029.00
2023-02-12T10:23:48.437Z,99027.00
2023-02-12T10:26:26.142Z,99027.00
2023-02-12T10:28:55.076Z,99027.00
2023-02-12T10:31:37.807Z,99029.00
2023-02-12T10:34:22.174Z,99024.00
2023-02-12T10:36:54.815Z,99021.00
2023-02-12T10:39:36.743Z,99034.00
2023-02-12T10:42:23.551Z,99033.00
2023-02-12T10:44:51.918Z,99031.00
2023-02-12T10:47:22.243Z,99024.00
2023-02-12T10:50:13.381Z,99024.00
2023-02-12T10:52:50.106Z,99020.00
2023-02-12T10:55:29.285Z,99009.00
2023-02-12T10:58:00.170Z,99020.00
2023-02-12T11:00:37.055Z,99020.00
2023-02-12T11:03:14.952Z,99016.00
2023-02-12T11:05:44.655Z,99017.00
2023-02-12T11:08:40.292Z,99015.00
2023-02-12T11:11:30.603Z,99025.00
2023-02-12T11:14:17.430Z,99016.00
2023-02-12T11:16:56.593Z,99026.00
2023-02-12T11:19:30.958Z,99030.00
2023-02-12T11:22:19.341Z,99021.00
2023-02-12T11:24:48.298Z,99021.00
2023-02-12T11:27:28.932Z,99024.00
2023-02-12T11:30:19.940Z,99018.00
2023-02-12T11:32:50.012Z,99019.00
2023-02-12T11:35:35.912Z,99011.00
2023-02-12T11:38:04.087Z,99012.00
2023-02-12T11:40:34.403Z,99015.00
2023-02-12T11:43:07.605Z,99014.00
2023-02-12T11:45:45.134Z,99009.00
2023-02-12T11:48:23.448Z,99019.00
2023-02-12T11:50:55.343Z,99013.00
2023-02-12T11:53:52.326Z,99020.00
2023-02-12T11:56:21.190Z,99009.00
2023-02-12T11:58:51.167Z,99016.00
2023-02-12T12:01:31.081Z,99020.00
2023-02-12T12:04:18.110Z,99021.00
2023-02-12T12:06:51.627Z,99017.00
2023-02-12T12:09:56.640Z,99010.00
2023-02-12T12:12:43.724Z,99006.00
2023-02-12T12:15:43.544Z,99007.00
2023-02-12T12:18:56.340Z,99005.00
2023-02-12T12:21:43.996Z,99004.00
2023-02-12T12:24:40.004Z,99001.00
2023-02-12T12:27:57.224Z,98991.00
2023-02-12T12:30:43.963Z,99007.00
2023-02-12T12:33:36.054Z,99008.00
2023-02-12T12:36:14.501Z,99003.00
2023-02-12T12:39:18.830Z,99007.00
2023-02-12T12:41:53.761Z,99006.00
2023-02-12T12:44:47.927Z,99009.00
2023-02-12T12:47:59.684Z,99003.00
2023-02-12T12:51:22.495Z,98990.00
2023-02-12T12:53:59.388Z,98994.00
2023-02-12T12:56:38.307Z,98989.00
2023-02-12T12:59:48.617Z,98988.00
2023-02-12T13:02:45.712Z,98988.00
2023-02-12T13:05:51.569Z,98983.00
2023-02-12T13:08:46.816Z,98991.00
2023-02-12T13:11:29.953Z,98981.00
2023-02-12T13:14:37.692Z,98985.00
2023-02-12T13:17:15.569Z,98985.00
2023-02-12T13:20:04.650Z,98983.00
2023-02-12T13:23:33.713Z,98986.00
2023-02-12T13:26:24.278Z,98983.00
2023-02-12T13:29:02.462Z,98988.00
2023-02-12T13:31:38.853Z,98987.00
2023-02-12T13:34:13.983Z,98988.00
2023-02-12T13:36:43.031Z,98980.00
2023-02-12T13:39:12.542Z,98991.00
2023-02-12T13:41:45.856Z,98980.00
2023-02-12T13:44:46.704Z,98994.00
2023-02-12T13:47:40.776Z,98984.00
2023-02-12T13:51:04.608Z,98981.00
2023-02-12T13:53:54.899Z,98987.00
2023-02-12T13:56:46.164Z,98973.00
2023-02-12T13:59:32.336Z,98976.00
2023-02-12T14:02:01.216Z,98982.00
2023-02-12T14:04:38.931Z,98972.00
2023-02-12T14:07:12.964Z,98969.00
2023-02-12T14:09:46.172Z,98973.00
2023-02-12T14:12:25.927Z,98974.00
2023-02-12T14:15:08.798Z,98976.00
2023-02-12T14:17:36.733Z,98974.00
2023-02-12T14:20:34.612Z,98968.00
2023-02-12T14:23:27.653Z,98973.00
2023-02-12T14:26:24.555Z,98979.00
2023-02-12T14:29:06.488Z,98970.00
2023-02-12T14:31:38.890Z,98970.00
2023-02-12T14:34:06.172Z,98972.00
2023-02-12T14:36:33.277Z,98968.00
2023-02-12T14:39:08.579Z,98963.00
2023-02-12T14:41:41.765Z,98966.00
2023-02-12T14:44:18.033Z,98968.00
2023-02-12T14:46:58.808Z,98972.00
2023-02-12T14:49:33.683Z,98961.00
2023-02-12T14:52:06.604Z,98970.00
2023-02-12T14:54:45.538Z,98970.00
2023-02-12T14:57:36.084Z,98968.00
2023-02-12T15:00:19.642Z,98968.00
2023-02-12T15:02:56.233Z,98966.00
2023-02-12T15:05:47.520Z,98965.00
2023-02-12T15:08:31.773Z,98971.00
2023-02-12T15:11:45.994Z,98968.00
2023-02-12T15:14:24.872Z,98961.00
2023-02-12T15:17:02.722Z,98957.00
2023-02-12T15:20:06.639Z,98958.00
2023-02-12T15:22:43.097Z,98945.00
2023-02-12T15:25:32.911Z,98958.00
2023-02-12T15:28:07.460Z,98958.00
2023-02-12T15:30:38.272Z,98951.00
2023-02-12T15:33:07.417Z,98959.00
2023-02-12T15:35:38.425Z,98960.00
2023-02-12T15:38:08.860Z,98946.00
2023-02-12T15:40:36.052Z,98953.00
2023-02-12T15:43:06.955Z,98955.00
2023-02-12T15:45:36.343Z,98961.00
2023-02-12T15:48:18.512Z,98959.00
2023-02-12T15:51:22.725Z,98954.00
2023-02-12T15:53:50.084Z,98952.00
2023-02-12T15:56:22.486Z,98956.00
2023-02-12T15:58:57.219Z,98961.00
2023-02-12T16:01:34.337Z,98942.00
2023-02-12T16:04:08.902Z,98945.00
2023-02-12T16:06:37.197Z,98953.00
2023-02-12T16:09:16.436Z,98955.00
2023-02-12T16:11:45.933Z,98953.00
2023-02-12T16:14:40.770Z,98965.00
2023-02-12T16:17:38.147Z,98961.00
2023-02-12T16:20:27.112Z,98967.00
2023-02-12T16:22:55.324Z,98969.00
2023-02-12T16:25:33.414Z,98973.00
2023-02-12T16:28:17.810Z,98980.00
2023-02-12T16:30:48.206Z,98977.00
2023-02-12T16:33:48.540Z,98974.00
2023-02-12T16:36:25.225Z,98973.00
2023-02-12T16:39:02.547Z,98979.00
2023-02-12T16:41:32.346Z,98985.00
2023-02-12T16:44:06.267Z,98987.00
2023-02-12T16:46:45.119Z,98984.00
2023-02-12T16:49:18.163Z,98997.00
2023-02-12T16:51:45.981Z,98981.00
2023-02-12T16:54:35.116Z,98991.00
2023-02-12T16:57:02.140Z,98996.00
2023-02-12T16:59:29.574Z,98997.00
2023-02-12T17:02:14.515Z,98990.00
2023-02-12T17:04:41.757Z,98994.00
2023-02-12T17:07:28.137Z,98990.00
2023-02-12T17:09:55.034Z,99003.00
2023-02-12T17:12:21.847Z,98998.00
2023-02-12T17:14:48.926Z,99000.00
2023-02-12T17:17:16.478Z,99000.00
2023-02-12T17:19:43.290Z,99003.00
2023-02-12T17:22:23.993Z,98998.00
2023-02-12T17:24:53.063Z,99000.00
2023-02-12T17:27:20.369Z,99005.00
2023-02-12T17:29:47.407Z,99005.00
2023-02-12T17:32:14.459Z,99013.00
2023-02-12T17:34:48.621Z,99012.00
2023-02-12T17:37:17.998Z,99017.00
2023-02-12T17:39:44.954Z,99020.00
2023-02-12T17:42:12.138Z,99018.00
2023-02-12T17:44:40.063Z,99021.00
2023-02-12T17:47:07.144Z,99021.00
2023-02-12T17:49:35.441Z,99014.00
2023-02-12T17:52:04.150Z,99014.00
2023-02-12T17:54:32.432Z,99016.00
2023-02-12T17:56:59.220Z,99012.00
2023-02-12T17:59:26.084Z,99015.00
2023-02-12T18:01:52.908Z,99024.00
2023-02-12T18:04:19.821Z,99025.00
2023-02-12T18:06:46.635Z,99023.00
2023-02-12T18:09:13.574Z,99017.00
2023-02-12T18:11:42.142Z,99032.00
2023-02-12T18:14:11.720Z,99025.00
2023-02-12T18:16:38.676Z,99020.00
2023-02-12T18:19:05.799Z,99017.00
2023-02-12T18:21:34.885Z,99015.00
2023-02-12T18:24:02.139Z,99022.00
2023-02-12T18:26:29.494Z,99019.00
2023-02-12T18:28:58.531Z,99024.00
2023-02-12T18:31:26.777Z,99008.00
2023-02-12T18:33:54.310Z,99003.00
2023-02-12T18:36:22.490Z,99010.00
2023-02-12T18:38:51.727Z,99009.00
2023-02-12T18:41:27.507Z,99009.00
2023-02-12T18:43:55.145Z,99010.00
2023-02-12T18:46:26.602Z,99014.00
2023-02-12T18:48:55.631Z,99007.00
2023-02-12T18:51:26.976Z,99014.00
2023-02-12T18:54:02.881Z,99002.00
2023-02-12T18:56:33.760Z,99001.00
2023-02-12T18:59:04.916Z,99006.00
2023-02-12T19:01:34.563Z,99004.00
2023-02-12T19:04:04.870Z,99001.00
2023-02-12T19:06:34.441Z,99006.00
2023-02-12T19:09:04.832Z,99013.00
2023-02-12T19:11:32.341Z,99004.00
2023-02-12T19:14:01.182Z,98999.00
2023-02-12T19:16:30.084Z,99005.00
2023-02-12T19:19:00.867Z,99009.00
2023-02-12T19:21:27.663Z,99006.00
2023-02-12T19:23:56.873Z,98999.00
2023-02-12T19:26:25.377Z,99003.00
2023-02-12T19:28:54.444Z,99007.00
2023-02-12T19:31:30.458Z,99007.00
2023-02-12T19:34:02.502Z,99009.00
2023-02-12T19:36:33.448Z,99000.00
2023-02-12T19:39:03.369Z,99011.00
2023-02-12T19:41:31.280Z,99017.00
2023-02-12T19:44:02.954Z,99024.00
2023-02-12T19:46:31.415Z,99014.00
2023-02-12T19:49:01.868Z,99012.00
2023-02-12T19:51:30.361Z,99015.00
2023-02-12T19:54:05.888Z,99014.00
2023-02-12T19:56:35.376Z,99012.00
2023-02-12T19:59:03.139Z,99018.00
2023-02-12T20:01:31.699Z,99025.00
2023-02-12T20:03:58.850Z,99018.00
2023-02-12T20:06:37.103Z,99020.00
2023-02-12T20:09:06.951Z,99015.00
2023-02-12T20:11:38.451Z,99013.00
2023-02-12T20:14:10.155Z,99023.00
2023-02-12T20:16:39.224Z,99017.00
2023-02-12T20:19:14.096Z,99014.00
2023-02-12T20:21:42.769Z,99036.00
2023-02-12T20:24:10.921Z,99039.00
2023-02-12T20:26:38.834Z,99035.00
2023-02-12T20:29:06.613Z,99032.00
2023-02-12T20:31:36.369Z,99042.00
2023-02-12T20:34:12.164Z,99037.00
2023-02-12T20:36:43.511Z,99047.00
2023-02-12T20:39:13.490Z,99036.00
2023-02-12T20:41:41.218Z,99041.00
2023-02-12T20:44:15.277Z,99041.00
2023-02-12T20:46:52.479Z,99039.00
2023-02-12T20:49:22.833Z,99044.00
2023-02-12T20:51:50.676Z,99039.00
2023-02-12T20:54:17.460Z,99051.00
2023-02-12T20:56:44.859Z,99054.00
2023-02-12T20:59:13.782Z,99042.00
2023-02-12T21:01:43.140Z,99049.00
2023-02-12T21:04:14.665Z,99047.00
2023-02-12T21:06:42.073Z,99032.00
2023-02-12T21:09:13.113Z,99039.00
2023-02-12T21:11:42.709Z,99036.00
2023-02-12T21:14:21.857Z,99037.00
2023-02-12T21:16:51.824Z,99036.00
2023-02-12T21:19:18.919Z,99031.00
2023-02-12T21:21:48.978Z,99039.00
2023-02-12T21:24:22.755Z,99040.00
2023-02-12T21:26:52.122Z,99044.00
2023-02-12T21:29:19.825Z,99037.00
2023-02-12T21:31:50.836Z,99034.00
2023-02-12T21:34:22.134Z,99031.00
2023-02-12T21:36:50.924Z,99030.00
2023-02-12T21:39:26.526Z,99028.00
2023-02-12T21:42:00.915Z,99033.00
2023-02-12T21:44:29.236Z,99026.00
2023-02-12T21:46:57.240Z,99022.00
2023-02-12T21:49:25.200Z,99023.00
2023-02-12T21:52:04.683Z,99019.00
2023-02-12T21:54:33.369Z,99024.00
2023-02-12T21:57:02.892Z,99011.00
2023-02-12T21:59:32.621Z,99012.00
2023-02-12T22:02:02.649Z,99014.00
2023-02-12T22:04:30.698Z,99013.00
2023-02-12T22:07:03.466Z,99023.00
2023-02-12T22:09:31.501Z,99020.00
2023-02-12T22:11:58.505Z,99008.00
2023-02-12T22:14:25.533Z,99014.00
2023-02-12T22:16:52.752Z,99016.00
2023-02-12T22:19:21.870Z,99011.00
2023-02-12T22:21:54.096Z,99018.00
2023-02-12T22:24:22.182Z,99018.00
2023-02-12T22:26:49.245Z,99020.00
2023-02-12T22:29:17.881Z,99013.00
2023-02-12T22:31:46.649Z,99028.00
2023-02-12T22:34:17.849Z,99015.00
2023-02-12T22:36:46.625Z,99015.00
2023-02-12T22:39:14.644Z,99024.00
2023-02-12T22:41:42.415Z,99025.00
2023-02-12T22:44:12.443Z,99026.00
2023-02-12T22:46:40.336Z,99014.00
2023-02-12T22:49:07.112Z,99028.00
2023-02-12T22:51:35.930Z,99026.00
2023-02-12T22:54:03.787Z,99030.00
2023-02-12T22:56:30.595Z,99027.00
2023-02-12T22:59:01.771Z,99029.00
2023-02-12T23:01:30.157Z,99016.00
2023-02-12T23:03:57.385Z,99022.00
2023-02-12T23:06:31.091Z,99022.00
2023-02-12T23:09:04.428Z,99020.00
2023-02-12T23:11:33.135Z,99017.00
2023-02-12T23:14:00.489Z,99018.00
2023-02-12T23:16:27.404Z,99026.00
2023-02-12T23:18:59.266Z,99015.00
2023-02-12T23:21:28.678Z,99020.00
2023-02-12T23:23:56.132Z,99013.00
2023-02-12T23:26:23.551Z,99026.00
2023-02-12T23:28:50.681Z,99019.00
2023-02-12T23:31:17.814Z,99017.00
2023-02-12T23:33:44.720Z,99032.00
2023-02-12T23:36:11.931Z,99019.00
2023-02-12T23:38:38.808Z,99017.00
2023-02-12T23:41:05.821Z,99017.00
2023-02-12T23:43:35.204Z,99020.00
2023-02-12T23:46:03.216Z,99013.00
2023-02-12T23:48:30.437Z,99007.00
2023-02-12T23:50:57.940Z,99009.00
2023-02-12T23:53:25.014Z,99009.00
2023-02-12T23:55:52.026Z,99011.00
2023-02-12T23:58:19.070Z,98996.00
